Аэропорт
Полярный (UERP)

 UERP / PYJ
ЗЦ Хабаровск
Якутск (UEEE)
Якутск (UEEE)
 66.40040, 112.03000  / 1660 ft

 UERP 122200Z 20001MPS 9999 BKN033 OVC100 14/09 Q1008 NOSIG RMK QFE712
 TAF UERP 122000Z 1221/1321 24004MPS 9999 SCT020CB BKN100
UERP_j_0220
показать схемы
Название сценария Тип сценария Flight Simulator 9 Flight Simulator X Prepar3D v2 Prepar3D v3 Prepar3D v4 Prepar3D v5 xPlane
UERP FS9 бесплатный
UERP_P3D_v.4.4 бесплатный


2020 © VATRUS division (Privacy Policy)